Time;durP1;ratioP1;P1;durP2;ratioP2;P2;SDS_P1;SDS_P2;PMS_P1;PMS_P2;Temp;Humidity;BMP_temperature;BMP_pressure;BME280_temperature;BME280_humidity;BME280_pressure;Samples;Min_cycle;Max_cycle;Signal;HPM_P1;HPM_P2
2021/10/05 00:00:41;;;;;;;;;;;;;;;;;;;;;
2021/10/05 00:03:46;;;;;;;;;3.00;2.00;;;;;15.94;63.62;100761.66;6309351;22;74679;-85
2021/10/05 00:06:51;;;;;;;;;1.00;0.33;;;;;15.98;64.00;100772.16;6307191;22;45429;-84
2021/10/05 05:26:27;;;;;;;;;4.00;3.00;;;;;15.16;69.24;100252.59;6251537;22;46438;-82
2021/10/05 05:29:13;;;;;;;;;1.33;1.33;;;;;15.17;69.15;100252.53;6271133;22;45472;-84
2021/10/05 05:31:38;;;;;;;;;2.00;2.00;;;;;15.20;69.55;100254.22;6248133;22;45253;-85
2021/10/05 05:34:16;;;;;;;;;;;;;;;;;;;;;
2021/10/05 05:36:42;;;;;;;;;3.67;2.33;;;;;15.04;69.37;100229.97;6246046;22;74180;-86
2021/10/05 05:39:10;;;;;;;;;2.00;2.00;;;;;15.12;69.70;100243.84;6246344;22;45380;-85
2021/10/05 05:41:35;;;;;;;;;2.00;2.00;;;;;15.16;69.46;100242.00;6245356;22;45315;-84
2021/10/05 05:44:03;;;;;;;;;3.67;2.00;;;;;15.10;69.59;100239.50;6246073;22;45522;-85
2021/10/05 05:46:59;;;;;;;;;;;;;;;;;;;;;
2021/10/05 05:49:30;;;;;;;;;2.00;1.00;;;;;15.16;69.62;100242.00;6246489;22;73280;-84
2021/10/05 05:52:00;;;;;;;;;1.00;1.00;;;;;15.05;69.50;100206.97;6246000;22;45222;-84
2021/10/05 05:54:26;;;;;;;;;3.67;3.00;;;;;15.14;69.57;100219.94;6271871;22;45378;-83
2021/10/05 05:56:51;;;;;;;;;1.00;1.00;;;;;15.16;69.44;100223.44;6246057;22;46401;-83
2021/10/05 05:59:17;;;;;;;;;4.00;3.00;;;;;15.14;69.36;100218.16;6248647;22;45279;-84
2021/10/05 06:01:43;;;;;;;;;0.67;0.67;;;;;15.07;69.58;100206.00;6272501;22;45455;-83
2021/10/05 06:04:08;;;;;;;;;1.00;1.00;;;;;15.22;69.14;100224.09;6248458;22;45161;-84
2021/10/05 06:06:34;;;;;;;;;1.33;0.00;;;;;15.19;69.35;100207.41;6246174;22;46961;-83
2021/10/05 06:09:01;;;;;;;;;1.67;1.00;;;;;15.13;69.63;100200.53;6246502;22;45256;-83
2021/10/05 06:11:37;;;;;;;;;1.00;1.00;;;;;15.25;69.32;100211.66;6271878;22;45253;-82
2021/10/05 06:14:05;;;;;;;;;1.00;1.00;;;;;15.13;69.19;100179.31;6248208;22;45270;-82
2021/10/05 06:16:31;;;;;;;;;2.00;2.00;;;;;15.26;69.37;100185.06;6246077;22;45642;-82
2021/10/05 06:29:48;;;;;;;;;3.00;1.00;;;;;15.16;69.34;100154.50;6043485;23;45399;-82
2021/10/05 06:32:14;;;;;;;;;3.00;2.00;;;;;15.22;69.46;100147.19;6227742;22;45249;-82
2021/10/05 06:34:40;;;;;;;;;1.00;1.00;;;;;15.21;68.93;100160.50;6247986;22;45390;-82
2021/10/05 06:37:05;;;;;;;;;2.67;2.67;;;;;15.28;69.52;100174.44;6248419;22;45339;-82
2021/10/05 06:39:31;;;;;;;;;4.00;4.00;;;;;15.22;69.54;100163.09;6247837;22;46575;-82
2021/10/05 06:41:56;;;;;;;;;4.00;3.00;;;;;15.23;69.79;100156.00;6247728;22;45403;-82
2021/10/05 06:44:29;;;;;;;;;1.00;1.00;;;;;15.28;69.80;100172.63;6271794;22;45390;-82
2021/10/05 06:46:54;;;;;;;;;2.33;2.33;;;;;15.20;69.94;100159.63;6248192;22;45452;-82
2021/10/05 06:49:20;;;;;;;;;2.33;2.33;;;;;15.37;69.75;100182.06;6271479;22;46835;-82
2021/10/05 06:51:46;;;;;;;;;1.00;1.00;;;;;15.20;70.13;100141.06;6248008;22;45376;-82
2021/10/05 06:54:13;;;;;;;;;2.33;2.33;;;;;15.26;70.04;100149.72;6271675;22;45381;-82
2021/10/05 06:56:59;;;;;;;;;2.00;2.00;;;;;15.39;70.57;100154.59;6245734;22;45486;-82
2021/10/05 06:59:36;;;;;;;;;4.00;3.67;;;;;15.34;70.76;100150.34;6230874;22;45994;-82
2021/10/05 07:02:01;;;;;;;;;2.00;2.00;;;;;15.28;70.96;100151.41;6245196;22;45392;-82
2021/10/05 07:04:27;;;;;;;;;2.33;1.00;;;;;15.30;70.90;100154.91;6271443;22;45181;-82
2021/10/05 07:07:05;;;;;;;;;3.67;3.00;;;;;15.30;70.97;100149.59;6271197;22;45474;-84
2021/10/05 07:14:00;;;;;;;;;;;;;;;;;;;;;
2021/10/05 07:26:20;;;;;;;;;1.33;1.00;;;;;15.17;72.37;100092.56;6064520;23;45608;-88
2021/10/05 07:32:41;;;;;;;;;1.00;1.00;;;;;15.25;72.41;100057.84;6088373;23;45400;-90
2021/10/05 07:35:07;;;;;;;;;3.33;1.67;;;;;15.19;72.87;100056.28;6115825;23;46983;-88
2021/10/05 07:37:53;;;;;;;;;1.33;1.33;;;;;15.28;72.76;100077.16;6227557;22;45457;-89
2021/10/05 07:40:35;;;;;;;;;2.00;2.00;;;;;15.31;72.94;100078.84;6248850;22;45475;-90
2021/10/05 09:36:13;;;;;;;;;;;;;;;;;;;;;
2021/10/05 09:39:33;;;;;;;;;0.00;0.00;;;;;15.12;72.01;100140.44;6275554;22;75611;-88
2021/10/05 14:24:29;;;;;;;;;1.00;1.00;;;;;23.56;35.71;100490.03;6246218;22;46602;-77
2021/10/05 14:26:58;;;;;;;;;0.00;0.00;;;;;22.81;36.84;100483.78;6280351;22;45313;-88
2021/10/05 20:42:24;;;;;;;;;1.00;1.00;;;;;13.71;61.79;101064.34;6232200;22;46853;31
2021/10/05 20:44:50;;;;;;;;;2.00;2.00;;;;;13.61;62.11;101067.09;6337266;22;47444;-82
2021/10/05 20:47:25;;;;;;;;;;;;;;;;;;;;;
2021/10/05 20:50:00;;;;;;;;;1.00;0.00;;;;;13.50;61.95;101061.06;6336072;22;69001;-83
2021/10/05 23:15:32;;;;;;;;;2.00;1.00;;;;;13.21;64.45;101223.47;6230482;22;46375;31
2021/10/05 23:17:59;;;;;;;;;1.33;1.00;;;;;13.07;64.06;101198.00;6218927;22;45342;-81
2021/10/05 23:20:35;;;;;;;;;0.67;0.67;;;;;13.09;64.11;101193.59;6214032;22;45195;-82
2021/10/05 23:23:47;;;;;;;;;;;;;;;;;;;;;
2021/10/05 23:29:56;;;;;;;;;2.33;1.67;;;;;13.23;64.38;101234.91;6105873;22;45616;-83
2021/10/05 23:32:25;;;;;;;;;1.00;1.00;;;;;13.03;64.20;101219.16;6215489;22;45566;-83
2021/10/05 23:34:56;;;;;;;;;1.67;1.00;;;;;13.00;64.05;101219.19;6210003;22;47832;-83
2021/10/05 23:37:22;;;;;;;;;1.00;1.00;;;;;13.13;64.65;101245.56;6238539;22;45409;-84
2021/10/05 23:39:52;;;;;;;;;4.00;3.00;;;;;13.08;64.89;101245.59;6209413;22;45413;-83
2021/10/05 23:42:18;;;;;;;;;3.00;2.00;;;;;13.13;64.33;101254.38;6215207;22;45648;-83
2021/10/05 23:44:43;;;;;;;;;0.33;0.33;;;;;13.13;64.55;101261.44;6213617;22;47843;-83
2021/10/05 23:47:09;;;;;;;;;2.33;1.33;;;;;12.93;64.76;101233.31;6216255;22;45332;-83
2021/10/05 23:49:39;;;;;;;;;2.33;1.00;;;;;13.08;64.44;101264.09;6213012;22;45692;-83
2021/10/05 23:52:05;;;;;;;;;0.00;0.00;;;;;13.03;64.65;101255.31;6240939;22;45305;-82
2021/10/05 23:54:32;;;;;;;;;3.00;1.33;;;;;13.05;64.83;101261.47;6239256;22;47589;-82
2021/10/05 23:56:58;;;;;;;;;3.67;1.00;;;;;12.93;64.77;101241.25;6241317;22;45356;-82
2021/10/05 23:59:27;;;;;;;;;1.33;0.33;;;;;12.92;64.42;101249.19;6214008;22;45405;-81
